Time;durP1;ratioP1;P1;durP2;ratioP2;P2;SDS_P1;SDS_P2;PMS_P1;PMS_P2;Temp;Humidity;BMP_temperature;BMP_pressure;BME280_temperature;BME280_humidity;BME280_pressure;Samples;Min_cycle;Max_cycle;Signal;HPM_P1;HPM_P2
2021/12/21 00:00:40;;;;;;;;;3.60;2.60;;;;;;;;5188347;28;8813;-66
2021/12/21 00:03:11;;;;;;;;;1.40;1.40;;;;;;;;5188506;28;8785;-64
2021/12/21 00:05:42;;;;;;;;;2.50;2.50;;;;;;;;5205686;28;8877;-66
2021/12/21 00:08:16;;;;;;;;;1.00;1.00;;;;;;;;5171856;28;8797;-66
2021/12/21 00:10:48;;;;;;;;;3.20;3.20;;;;;;;;5171686;28;8801;-67
2021/12/21 00:16:10;;;;;;;;;0.40;0.40;;;;;;;;5188391;28;8880;-69
2021/12/21 00:21:37;;;;;;;;;6.00;6.00;;;;;;;;5188636;28;8762;-69
2021/12/21 00:24:18;;;;;;;;;3.00;3.00;;;;;;;;5187714;28;8805;-69
2021/12/21 00:26:49;;;;;;;;;12.00;12.00;;;;;;;;5187731;28;8924;-67
2021/12/21 00:29:21;;;;;;;;;3.00;3.00;;;;;;;;5188283;28;9462;-70
2021/12/21 00:31:52;;;;;;;;;3.80;3.20;;;;;;;;5205427;28;8919;-68
2021/12/21 00:34:42;;;;;;;;;10.00;9.60;;;;;;;;5205078;28;9469;-69
2021/12/21 00:37:13;;;;;;;;;1.00;1.00;;;;;;;;5187877;28;8774;-69
2021/12/21 00:39:44;;;;;;;;;4.00;4.00;;;;;;;;5187702;28;8813;-68
2021/12/21 00:42:15;;;;;;;;;7.50;7.50;;;;;;;;5187737;28;8817;-68
2021/12/21 00:44:46;;;;;;;;;3.80;3.80;;;;;;;;5187567;28;8836;-68
2021/12/21 00:47:18;;;;;;;;;7.20;7.20;;;;;;;;5187500;28;8785;-68
2021/12/21 00:49:58;;;;;;;;;7.25;7.25;;;;;;;;5188717;28;8793;-69
2021/12/21 00:52:30;;;;;;;;;5.60;4.00;;;;;;;;5188239;28;8782;-69
2021/12/21 00:55:00;;;;;;;;;7.80;7.40;;;;;;;;5188194;28;8868;-67
2021/12/21 00:57:31;;;;;;;;;3.20;3.20;;;;;;;;5187320;28;8782;-68
2021/12/21 01:00:04;;;;;;;;;0.75;0.75;;;;;;;;5205285;28;8808;-68
2021/12/21 01:02:36;;;;;;;;;7.40;6.80;;;;;;;;5187268;28;11532;-68
2021/12/21 01:05:16;;;;;;;;;8.20;8.20;;;;;;;;5170830;28;8816;-68
2021/12/21 01:07:51;;;;;;;;;3.60;3.60;;;;;;;;5187493;28;8782;-69
2021/12/21 01:13:31;;;;;;;;;0.00;0.00;;;;;;;;5205104;28;8770;-69
2021/12/21 01:16:18;;;;;;;;;4.00;4.00;;;;;;;;5195320;28;8801;-68
2021/12/21 01:19:03;;;;;;;;;3.80;3.80;;;;;;;;5202738;28;8822;-68
2021/12/21 01:21:57;;;;;;;;;6.20;6.00;;;;;;;;5212341;28;8845;-69
2021/12/21 01:35:51;;;;;;;;;4.00;4.00;;;;;;;;5190701;28;8821;-68
2021/12/21 01:43:36;;;;;;;;;4.80;4.80;;;;;;;;5187069;28;8850;-68
2021/12/21 01:51:46;;;;;;;;;4.60;4.60;;;;;;;;5187152;28;8783;-69
2021/12/21 01:54:17;;;;;;;;;13.25;13.25;;;;;;;;5189093;28;8791;-69
2021/12/21 01:56:48;;;;;;;;;6.75;6.00;;;;;;;;5170891;28;8783;-68
2021/12/21 01:59:19;;;;;;;;;20.75;19.75;;;;;;;;5186370;28;11509;-69
2021/12/21 02:01:59;;;;;;;;;9.80;9.80;;;;;;;;5186253;28;8790;-69
2021/12/21 02:04:30;;;;;;;;;16.00;16.00;;;;;;;;5170238;28;8809;-69
2021/12/21 02:07:02;;;;;;;;;4.40;3.40;;;;;;;;5186793;28;8795;-69
2021/12/21 02:09:39;;;;;;;;;3.00;3.00;;;;;;;;5187726;28;9462;-69
2021/12/21 02:12:13;;;;;;;;;8.20;7.00;;;;;;;;5186582;28;9469;-68
2021/12/21 02:14:48;;;;;;;;;11.20;10.80;;;;;;;;5187881;28;8779;-69
2021/12/21 02:20:24;;;;;;;;;11.20;10.40;;;;;;;;5187735;28;8810;-68
2021/12/21 02:22:59;;;;;;;;;10.00;10.00;;;;;;;;5187964;28;8768;-68
2021/12/21 02:28:36;;;;;;;;;9.00;8.20;;;;;;;;5187504;28;9479;-68
2021/12/21 02:31:07;;;;;;;;;12.40;11.60;;;;;;;;5186610;28;8933;-68
2021/12/21 02:33:38;;;;;;;;;10.00;10.00;;;;;;;;5186040;28;8925;-67
2021/12/21 02:36:09;;;;;;;;;21.25;21.25;;;;;;;;5186032;28;8775;-67
2021/12/21 02:38:40;;;;;;;;;16.33;16.33;;;;;;;;5187109;28;8809;-67
2021/12/21 02:41:11;;;;;;;;;14.33;14.33;;;;;;;;5185579;28;8775;-66
2021/12/21 02:43:42;;;;;;;;;13.00;13.00;;;;;;;;5198168;28;8857;-67
2021/12/21 02:46:13;;;;;;;;;16.75;15.50;;;;;;;;5207288;28;8837;-67
2021/12/21 02:48:43;;;;;;;;;24.00;23.67;;;;;;;;5207231;28;8793;-66
2021/12/21 02:51:33;;;;;;;;;21.00;20.75;;;;;;;;5192483;28;11543;-66
2021/12/21 02:54:04;;;;;;;;;16.67;16.67;;;;;;;;5206470;28;9489;-67
2021/12/21 02:56:35;;;;;;;;;17.25;14.75;;;;;;;;5207541;28;9453;-67
2021/12/21 02:59:24;;;;;;;;;11.00;10.25;;;;;;;;5192775;28;8832;-65
2021/12/21 03:02:14;;;;;;;;;15.80;15.80;;;;;;;;5207289;28;8801;-65
2021/12/21 03:04:45;;;;;;;;;7.25;6.50;;;;;;;;5189241;28;9442;-65
2021/12/21 03:08:01;;;;;;;;;12.60;12.60;;;;;;;;5189636;28;8893;-65
2021/12/21 03:10:27;;;;;;;;;12.00;11.20;;;;;;;;5206872;28;8953;-65
2021/12/21 03:15:30;;;;;;;;;8.20;8.20;;;;;;;;5206739;28;9512;-68
2021/12/21 03:18:19;;;;;;;;;15.25;15.00;;;;;;;;5206881;28;8778;-65
2021/12/21 03:20:50;;;;;;;;;10.00;10.00;;;;;;;;5188860;28;8852;-66
2021/12/21 03:23:21;;;;;;;;;13.75;12.50;;;;;;;;5207223;28;8906;-67
2021/12/21 03:25:53;;;;;;;;;12.00;11.80;;;;;;;;5206114;28;8991;-67
2021/12/21 03:28:42;;;;;;;;;14.80;14.20;;;;;;;;5191586;28;8892;-67
2021/12/21 03:31:13;;;;;;;;;16.50;16.50;;;;;;;;5188614;28;8912;-67
2021/12/21 03:33:45;;;;;;;;;8.20;8.20;;;;;;;;5189280;28;8810;-67
2021/12/21 03:36:16;;;;;;;;;5.50;5.25;;;;;;;;5189151;28;8801;-67
2021/12/21 03:39:09;;;;;;;;;11.60;11.60;;;;;;;;5172098;28;8801;-68
2021/12/21 03:41:44;;;;;;;;;8.00;8.00;;;;;;;;5207224;28;9441;-68
2021/12/21 03:44:16;;;;;;;;;9.00;9.00;;;;;;;;5172155;28;8825;-68
2021/12/21 03:46:51;;;;;;;;;6.40;6.00;;;;;;;;5191073;28;9512;-66
2021/12/21 03:51:56;;;;;;;;;12.60;12.60;;;;;;;;5173151;28;8808;-67
2021/12/21 03:54:27;;;;;;;;;9.00;7.80;;;;;;;;5206583;28;8825;-67
2021/12/21 03:57:00;;;;;;;;;5.50;5.50;;;;;;;;5205825;28;8832;-66
2021/12/21 03:59:31;;;;;;;;;4.60;4.60;;;;;;;;5188320;28;9688;-67
2021/12/21 04:02:03;;;;;;;;;16.50;16.50;;;;;;;;5172176;28;8884;-67
2021/12/21 04:04:34;;;;;;;;;3.40;3.40;;;;;;;;5188258;28;8805;-67
2021/12/21 04:07:05;;;;;;;;;6.20;5.20;;;;;;;;5193742;28;8803;-67
2021/12/21 04:09:36;;;;;;;;;10.60;10.60;;;;;;;;5208678;28;8794;-67
2021/12/21 04:12:08;;;;;;;;;10.75;10.50;;;;;;;;5208875;28;8787;-67
2021/12/21 04:14:58;;;;;;;;;6.50;3.50;;;;;;;;5226344;28;8791;-67
2021/12/21 04:17:48;;;;;;;;;6.60;5.60;;;;;;;;5204386;28;8816;-68
2021/12/21 04:20:18;;;;;;;;;26.33;25.67;;;;;;;;5205159;28;9516;-68
2021/12/21 04:22:50;;;;;;;;;21.25;21.25;;;;;;;;5205615;28;8806;-68
2021/12/21 04:25:21;;;;;;;;;1.00;1.00;;;;;;;;5205858;28;8793;-68
2021/12/21 04:27:52;;;;;;;;;6.75;6.75;;;;;;;;5188007;28;8936;-68
2021/12/21 04:30:23;;;;;;;;;8.00;8.00;;;;;;;;5171184;28;8817;-68
2021/12/21 04:32:56;;;;;;;;;15.50;15.50;;;;;;;;5188051;28;8809;-68
2021/12/21 04:35:27;;;;;;;;;17.20;17.20;;;;;;;;5187731;28;8948;-68
2021/12/21 04:38:11;;;;;;;;;6.25;6.25;;;;;;;;5187828;28;8916;-67
2021/12/21 04:40:47;;;;;;;;;9.60;9.60;;;;;;;;5205668;28;9312;-68
2021/12/21 04:43:18;;;;;;;;;3.00;2.60;;;;;;;;5205650;28;8861;-68
2021/12/21 04:45:49;;;;;;;;;6.50;6.25;;;;;;;;5187925;28;8782;-68
2021/12/21 04:48:20;;;;;;;;;12.20;11.20;;;;;;;;5204635;28;8781;-68
2021/12/21 04:50:52;;;;;;;;;16.80;16.80;;;;;;;;5186907;28;9480;-68
2021/12/21 04:53:24;;;;;;;;;14.20;14.20;;;;;;;;5171710;28;8790;-68
2021/12/21 04:55:56;;;;;;;;;18.40;17.40;;;;;;;;5170873;28;8769;-68
2021/12/21 04:58:27;;;;;;;;;13.00;9.40;;;;;;;;5204978;28;8867;-68
2021/12/21 05:00:59;;;;;;;;;10.00;9.80;;;;;;;;5205015;28;8830;-68
2021/12/21 05:03:30;;;;;;;;;18.40;18.40;;;;;;;;5203896;28;8785;-68
2021/12/21 05:06:02;;;;;;;;;22.50;18.50;;;;;;;;5187069;28;8854;-67
2021/12/21 05:08:37;;;;;;;;;26.25;25.75;;;;;;;;5170652;28;8777;-67
2021/12/21 05:11:09;;;;;;;;;22.20;21.40;;;;;;;;5170852;28;8778;-68
2021/12/21 05:13:40;;;;;;;;;28.00;25.25;;;;;;;;5170607;28;8799;-67
2021/12/21 05:16:11;;;;;;;;;13.25;13.25;;;;;;;;5186917;28;8785;-66
2021/12/21 05:18:42;;;;;;;;;12.80;12.80;;;;;;;;5204441;28;11585;-66
2021/12/21 05:21:13;;;;;;;;;12.50;12.50;;;;;;;;5170751;28;8908;-66
2021/12/21 05:23:44;;;;;;;;;23.67;23.33;;;;;;;;5218756;28;9299;-68
2021/12/21 05:26:14;;;;;;;;;12.00;10.75;;;;;;;;5187226;28;8790;-67
2021/12/21 05:28:45;;;;;;;;;15.75;15.75;;;;;;;;5187376;28;8774;-65
2021/12/21 05:40:29;;;;;;;;;18.60;16.40;;;;;;;;5204426;28;8782;-65
2021/12/21 05:43:01;;;;;;;;;18.40;17.20;;;;;;;;5187043;28;8845;-65
2021/12/21 05:45:33;;;;;;;;;19.40;18.40;;;;;;;;5186258;28;8879;-65
2021/12/21 05:48:04;;;;;;;;;21.20;19.00;;;;;;;;5205116;28;8790;-66
2021/12/21 05:50:35;;;;;;;;;17.00;17.00;;;;;;;;5204914;28;8831;-66
2021/12/21 05:53:06;;;;;;;;;19.67;19.67;;;;;;;;5186948;28;8789;-65
2021/12/21 05:55:39;;;;;;;;;22.00;20.80;;;;;;;;5187159;28;9531;-66
2021/12/21 05:58:10;;;;;;;;;15.60;15.40;;;;;;;;5187578;28;9575;-66
2021/12/21 06:00:41;;;;;;;;;25.67;24.00;;;;;;;;5204458;28;8837;-66
2021/12/21 06:03:12;;;;;;;;;27.33;27.00;;;;;;;;5174465;28;8851;-66
2021/12/21 06:05:43;;;;;;;;;18.50;18.50;;;;;;;;5209811;28;8778;-65
2021/12/21 06:26:13;;;;;;;;;17.20;10.40;;;;;;;;5190312;28;8792;-63
2021/12/21 06:28:46;;;;;;;;;14.60;14.60;;;;;;;;5189974;28;8793;-63
2021/12/21 06:31:35;;;;;;;;;24.00;24.00;;;;;;;;5192879;28;8782;-62
2021/12/21 06:34:07;;;;;;;;;13.80;13.60;;;;;;;;5190338;28;8887;-63
2021/12/21 06:36:56;;;;;;;;;14.40;14.40;;;;;;;;5208237;28;8781;-62
2021/12/21 06:39:28;;;;;;;;;19.80;18.60;;;;;;;;5189593;28;8868;-63
2021/12/21 06:42:01;;;;;;;;;24.50;24.50;;;;;;;;5189816;28;8797;-63
2021/12/21 06:44:33;;;;;;;;;26.75;24.25;;;;;;;;5207917;28;8912;-64
2021/12/21 06:52:44;;;;;;;;;11.20;11.20;;;;;;;;5207193;28;8777;-64
2021/12/21 06:55:15;;;;;;;;;5.00;5.00;;;;;;;;5207649;28;8892;-64
2021/12/21 06:57:45;;;;;;;;;6.75;6.75;;;;;;;;5207486;28;9508;-64
2021/12/21 07:00:16;;;;;;;;;9.00;9.00;;;;;;;;5207421;28;8851;-64
2021/12/21 07:02:47;;;;;;;;;11.20;11.20;;;;;;;;5207712;28;8798;-64
2021/12/21 07:05:18;;;;;;;;;9.25;8.50;;;;;;;;5207919;28;8800;-64
2021/12/21 07:07:50;;;;;;;;;11.00;11.00;;;;;;;;5189060;28;11643;-64
2021/12/21 07:10:25;;;;;;;;;19.00;19.00;;;;;;;;5173381;28;8793;-64
2021/12/21 07:18:35;;;;;;;;;12.20;12.00;;;;;;;;5207144;28;8887;-64
2021/12/21 07:21:06;;;;;;;;;26.50;26.50;;;;;;;;5189297;28;9006;-64
2021/12/21 07:23:37;;;;;;;;;12.60;12.60;;;;;;;;5189308;28;8820;-64
2021/12/21 07:26:08;;;;;;;;;15.00;15.00;;;;;;;;5206676;28;8774;-63
2021/12/21 07:28:39;;;;;;;;;11.80;10.80;;;;;;;;5188841;28;8777;-65
2021/12/21 07:31:10;;;;;;;;;15.00;14.25;;;;;;;;5189177;28;8794;-64
2021/12/21 07:33:48;;;;;;;;;13.00;13.00;;;;;;;;5190001;28;8786;-65
2021/12/21 07:36:25;;;;;;;;;18.25;18.25;;;;;;;;5207913;28;8781;-65
2021/12/21 07:39:17;;;;;;;;;28.25;27.50;;;;;;;;5206738;28;8812;-64
2021/12/21 07:41:48;;;;;;;;;47.50;39.75;;;;;;;;5189116;28;8782;-63
2021/12/21 07:44:19;;;;;;;;;33.33;27.67;;;;;;;;5188370;28;8821;-63
2021/12/21 07:46:50;;;;;;;;;33.33;27.67;;;;;;;;5189514;28;8789;-63
2021/12/21 07:49:21;;;;;;;;;17.25;16.25;;;;;;;;5188482;28;8778;-63
2021/12/21 07:51:52;;;;;;;;;15.33;13.67;;;;;;;;5206025;28;8773;-63
2021/12/21 07:54:23;;;;;;;;;22.00;19.33;;;;;;;;5206470;28;8790;-63
2021/12/21 07:56:54;;;;;;;;;20.00;20.00;;;;;;;;5188543;28;8865;-63
2021/12/21 07:59:25;;;;;;;;;26.33;22.67;;;;;;;;5221524;28;9516;-63
2021/12/21 08:01:56;;;;;;;;;22.25;21.25;;;;;;;;5192485;28;8844;-63
2021/12/21 08:04:28;;;;;;;;;25.00;21.33;;;;;;;;5208986;28;8815;-63
2021/12/21 08:07:06;;;;;;;;;32.75;30.75;;;;;;;;5192531;28;9568;-63
2021/12/21 08:09:41;;;;;;;;;26.00;25.75;;;;;;;;5192161;28;8872;-64
2021/12/21 08:12:14;;;;;;;;;19.00;19.00;;;;;;;;5203812;28;8801;-64
2021/12/21 08:14:46;;;;;;;;;46.50;42.50;;;;;;;;5187601;28;8789;-65
2021/12/21 08:17:18;;;;;;;;;50.00;45.75;;;;;;;;5179196;28;8830;-65
2021/12/21 08:19:49;;;;;;;;;58.25;49.50;;;;;;;;5192876;28;8834;-65
2021/12/21 08:22:39;;;;;;;;;46.75;43.50;;;;;;;;5211236;28;8814;-65
2021/12/21 08:25:28;;;;;;;;;33.75;31.25;;;;;;;;5220855;28;8804;-67
2021/12/21 08:27:59;;;;;;;;;51.33;40.00;;;;;;;;5223582;28;8803;-65
2021/12/21 08:30:31;;;;;;;;;35.50;32.50;;;;;;;;5191975;28;8775;-64
2021/12/21 08:33:03;;;;;;;;;35.00;32.75;;;;;;;;5191843;28;8802;-64
2021/12/21 08:35:34;;;;;;;;;45.25;40.25;;;;;;;;5207913;28;8775;-64
2021/12/21 08:38:07;;;;;;;;;25.50;24.00;;;;;;;;5225907;28;8790;-64
2021/12/21 08:40:39;;;;;;;;;31.80;27.80;;;;;;;;5187734;28;8983;-63
2021/12/21 08:43:31;;;;;;;;;32.50;29.00;;;;;;;;5173820;28;8904;-64
2021/12/21 08:46:02;;;;;;;;;27.50;26.00;;;;;;;;5170724;28;8805;-63
2021/12/21 08:48:34;;;;;;;;;25.50;17.00;;;;;;;;5171142;28;8793;-64
2021/12/21 08:51:05;;;;;;;;;28.00;20.00;;;;;;;;5170977;28;8798;-64
2021/12/21 08:53:42;;;;;;;;;25.50;24.75;;;;;;;;5171168;28;8797;-64
2021/12/21 08:56:13;;;;;;;;;39.75;34.25;;;;;;;;5170883;28;8794;-64
2021/12/21 08:58:44;;;;;;;;;43.00;36.00;;;;;;;;5187841;28;8801;-64
2021/12/21 09:01:16;;;;;;;;;32.00;30.33;;;;;;;;5204944;28;8833;-64
2021/12/21 09:03:47;;;;;;;;;27.60;23.80;;;;;;;;5171003;28;8863;-64
2021/12/21 09:06:18;;;;;;;;;23.40;22.80;;;;;;;;5171328;28;9574;-64
2021/12/21 09:08:52;;;;;;;;;15.20;15.20;;;;;;;;5139913;28;8789;-64
2021/12/21 09:11:23;;;;;;;;;9.50;9.50;;;;;;;;5187425;28;8831;-64
2021/12/21 09:13:54;;;;;;;;;10.00;10.00;;;;;;;;5204861;28;8817;-64
2021/12/21 09:16:25;;;;;;;;;8.20;6.80;;;;;;;;5205005;28;12345;-64
2021/12/21 09:18:56;;;;;;;;;31.00;28.00;;;;;;;;5170928;28;8797;-64
2021/12/21 09:21:27;;;;;;;;;14.50;14.50;;;;;;;;5204635;28;9529;-64
2021/12/21 09:23:58;;;;;;;;;49.00;45.33;;;;;;;;5170622;28;11623;-65
2021/12/21 09:26:29;;;;;;;;;12.25;12.25;;;;;;;;5204636;28;9965;-64
2021/12/21 09:29:00;;;;;;;;;10.00;10.00;;;;;;;;5204895;28;9501;-64
2021/12/21 09:31:30;;;;;;;;;7.00;6.50;;;;;;;;5204721;28;11528;-64
2021/12/21 09:34:02;;;;;;;;;5.00;5.00;;;;;;;;5170765;28;8805;-65
2021/12/21 09:36:34;;;;;;;;;9.60;9.60;;;;;;;;5172568;28;11037;-62
2021/12/21 09:39:05;;;;;;;;;3.00;3.00;;;;;;;;5174620;28;8816;-64
2021/12/21 09:41:36;;;;;;;;;8.40;8.40;;;;;;;;5174619;28;8867;-65
2021/12/21 09:44:07;;;;;;;;;28.40;27.00;;;;;;;;5208563;28;8847;-66
2021/12/21 09:46:38;;;;;;;;;3.00;3.00;;;;;;;;5208552;28;8782;-65
2021/12/21 09:49:27;;;;;;;;;3.00;3.00;;;;;;;;5209161;28;8782;-62
2021/12/21 09:51:58;;;;;;;;;4.00;4.00;;;;;;;;5208369;28;8832;-65
2021/12/21 09:54:30;;;;;;;;;13.00;12.75;;;;;;;;5208468;28;8777;-64
2021/12/21 09:57:02;;;;;;;;;1.80;1.80;;;;;;;;5174373;28;8833;-64
2021/12/21 09:59:33;;;;;;;;;1.80;0.80;;;;;;;;5174362;28;8817;-65
2021/12/21 10:02:04;;;;;;;;;0.20;0.20;;;;;;;;5174322;28;8800;-65
2021/12/21 10:04:49;;;;;;;;;1.00;1.00;;;;;;;;5190397;28;8781;-64
2021/12/21 10:07:22;;;;;;;;;7.40;7.40;;;;;;;;5190501;28;9130;-65
2021/12/21 10:10:07;;;;;;;;;7.60;6.40;;;;;;;;5174001;28;8916;-64
2021/12/21 10:12:40;;;;;;;;;1.40;1.40;;;;;;;;5174371;28;8834;-64
2021/12/21 10:15:11;;;;;;;;;0.00;0.00;;;;;;;;5173916;28;8790;-64
2021/12/21 10:17:48;;;;;;;;;4.00;4.00;;;;;;;;5207827;28;8819;-64
2021/12/21 10:20:49;;;;;;;;;12.00;11.80;;;;;;;;5173711;28;8899;-65
2021/12/21 10:23:21;;;;;;;;;1.00;1.00;;;;;;;;5194732;28;8872;-65
2021/12/21 10:25:55;;;;;;;;;19.80;19.00;;;;;;;;5173706;28;8817;-65
2021/12/21 10:28:59;;;;;;;;;14.20;13.00;;;;;;;;5192928;28;8790;-64
2021/12/21 10:31:39;;;;;;;;;43.25;41.00;;;;;;;;5173833;28;8786;-64
2021/12/21 10:34:18;;;;;;;;;21.50;21.25;;;;;;;;5207488;28;8809;-64
2021/12/21 10:36:50;;;;;;;;;6.80;6.80;;;;;;;;5190202;28;8790;-64
2021/12/21 10:39:28;;;;;;;;;20.00;19.00;;;;;;;;5190128;28;8963;-63
2021/12/21 10:41:59;;;;;;;;;6.40;6.40;;;;;;;;5173567;28;8805;-63
2021/12/21 10:44:31;;;;;;;;;12.60;12.60;;;;;;;;5169090;28;8811;-63
2021/12/21 10:47:02;;;;;;;;;18.80;18.20;;;;;;;;5168483;28;8815;-65
2021/12/21 10:49:34;;;;;;;;;9.40;9.40;;;;;;;;5168611;28;8759;-63
2021/12/21 10:52:07;;;;;;;;;14.50;14.00;;;;;;;;5169092;28;8779;-63
2021/12/21 10:54:59;;;;;;;;;23.50;18.50;;;;;;;;5185940;28;8797;-63
2021/12/21 10:57:48;;;;;;;;;26.25;23.75;;;;;;;;5185807;28;9001;-63
2021/12/21 11:00:21;;;;;;;;;12.67;12.33;;;;;;;;5185299;28;9652;-63
2021/12/21 11:02:53;;;;;;;;;42.75;40.50;;;;;;;;5169065;28;8799;-63
2021/12/21 11:05:24;;;;;;;;;17.50;17.00;;;;;;;;5168915;28;8767;-63
2021/12/21 11:08:17;;;;;;;;;18.00;17.00;;;;;;;;5168740;28;8787;-63
2021/12/21 11:10:51;;;;;;;;;27.25;26.50;;;;;;;;5168984;28;8799;-63
2021/12/21 11:13:25;;;;;;;;;26.50;25.50;;;;;;;;5185029;28;8787;-63
2021/12/21 11:15:57;;;;;;;;;17.00;17.00;;;;;;;;5185057;28;8772;-63
2021/12/21 11:18:28;;;;;;;;;43.00;42.25;;;;;;;;5168984;28;8783;-63
2021/12/21 11:20:59;;;;;;;;;45.75;41.50;;;;;;;;5168836;28;8807;-63
2021/12/21 11:23:30;;;;;;;;;25.67;22.67;;;;;;;;5184956;28;8897;-63
2021/12/21 11:26:02;;;;;;;;;16.50;16.50;;;;;;;;5168562;28;8909;-63
2021/12/21 11:28:36;;;;;;;;;21.25;19.50;;;;;;;;5168385;28;8886;-63
2021/12/21 11:31:25;;;;;;;;;25.25;25.00;;;;;;;;5185369;28;8852;-63
2021/12/21 11:33:58;;;;;;;;;24.00;15.75;;;;;;;;5168361;28;9495;-63
2021/12/21 11:39:19;;;;;;;;;13.25;13.25;;;;;;;;5185042;28;8850;-63
2021/12/21 11:41:50;;;;;;;;;30.33;22.67;;;;;;;;5184603;28;8908;-63
2021/12/21 11:44:26;;;;;;;;;25.75;24.75;;;;;;;;5184673;28;8941;-63
2021/12/21 11:47:01;;;;;;;;;14.00;14.00;;;;;;;;5168489;28;9605;-63
2021/12/21 11:49:32;;;;;;;;;11.50;11.25;;;;;;;;5136373;28;8784;-63
2021/12/21 11:52:09;;;;;;;;;19.50;19.50;;;;;;;;5184611;28;8771;-63
2021/12/21 11:55:05;;;;;;;;;23.50;23.50;;;;;;;;5185831;28;8869;-63
2021/12/21 11:57:57;;;;;;;;;16.25;12.50;;;;;;;;5184717;28;8795;-63
2021/12/21 12:00:48;;;;;;;;;34.25;32.50;;;;;;;;5185145;28;8893;-63
2021/12/21 12:03:22;;;;;;;;;24.25;20.50;;;;;;;;5167880;28;8794;-64
2021/12/21 12:05:59;;;;;;;;;38.00;37.75;;;;;;;;5184360;28;8845;-64
2021/12/21 12:08:54;;;;;;;;;60.00;48.00;;;;;;;;5168241;28;9498;-63
2021/12/21 12:11:27;;;;;;;;;48.75;43.75;;;;;;;;5167898;28;8853;-63
2021/12/21 12:14:08;;;;;;;;;38.75;35.00;;;;;;;;5167677;28;8799;-63
2021/12/21 12:16:40;;;;;;;;;28.00;28.00;;;;;;;;5185089;28;8822;-63
2021/12/21 12:19:14;;;;;;;;;26.25;26.00;;;;;;;;5168073;28;8909;-63
2021/12/21 12:21:53;;;;;;;;;24.25;20.00;;;;;;;;5167624;28;8851;-63
2021/12/21 12:24:26;;;;;;;;;22.25;17.50;;;;;;;;5167663;28;8772;-64
2021/12/21 12:27:20;;;;;;;;;27.25;25.25;;;;;;;;5184126;28;8767;-64
2021/12/21 12:30:08;;;;;;;;;13.50;13.50;;;;;;;;5168115;28;8815;-63
2021/12/21 12:32:43;;;;;;;;;20.00;19.00;;;;;;;;5183898;28;8798;-65
2021/12/21 12:35:22;;;;;;;;;20.25;19.25;;;;;;;;5183767;28;8795;-62
2021/12/21 12:37:54;;;;;;;;;18.75;18.75;;;;;;;;5183536;28;8791;-63
2021/12/21 12:40:39;;;;;;;;;29.75;26.50;;;;;;;;5184857;28;8807;-63
2021/12/21 12:43:14;;;;;;;;;28.75;26.75;;;;;;;;5167171;28;8853;-62
2021/12/21 12:46:06;;;;;;;;;79.25;62.00;;;;;;;;5183843;28;8814;-63
2021/12/21 12:48:43;;;;;;;;;89.75;68.00;;;;;;;;5166955;28;10765;-63
2021/12/21 12:51:24;;;;;;;;;104.75;78.00;;;;;;;;5183390;28;10609;-63
2021/12/21 12:53:56;;;;;;;;;85.50;67.25;;;;;;;;5167135;28;12274;-64
2021/12/21 12:56:27;;;;;;;;;74.00;62.50;;;;;;;;5169122;28;10328;-66
2021/12/21 12:59:24;;;;;;;;;59.50;48.50;;;;;;;;5186423;28;10581;-65
2021/12/21 13:02:14;;;;;;;;;37.50;36.25;;;;;;;;5188032;28;9818;-65
2021/12/21 13:04:45;;;;;;;;;21.33;19.67;;;;;;;;5185720;28;8860;-64
2021/12/21 13:07:34;;;;;;;;;63.67;53.00;;;;;;;;5183692;28;8775;-63
2021/12/21 13:10:07;;;;;;;;;44.33;44.33;;;;;;;;5183125;28;9761;-63
2021/12/21 13:12:38;;;;;;;;;43.00;38.67;;;;;;;;5187766;28;8775;-64
2021/12/21 13:15:09;;;;;;;;;103.25;74.00;;;;;;;;5187766;28;8980;-63
2021/12/21 13:17:43;;;;;;;;;98.00;74.50;;;;;;;;5171299;28;8798;-64
2021/12/21 13:20:23;;;;;;;;;85.00;66.00;;;;;;;;5170970;28;8815;-64
2021/12/21 13:22:54;;;;;;;;;61.33;48.00;;;;;;;;5171061;28;10588;-64
2021/12/21 13:25:25;;;;;;;;;36.33;33.67;;;;;;;;5188899;28;9588;-64
2021/12/21 13:28:06;;;;;;;;;30.33;27.33;;;;;;;;5188750;28;8873;-64
2021/12/21 13:30:37;;;;;;;;;39.67;37.67;;;;;;;;5171258;28;8829;-64
2021/12/21 13:33:10;;;;;;;;;41.67;38.00;;;;;;;;5188214;28;8879;-64
2021/12/21 13:36:04;;;;;;;;;52.00;43.67;;;;;;;;5188860;28;8787;-64
2021/12/21 13:38:37;;;;;;;;;28.75;27.50;;;;;;;;5171280;28;9277;-64
2021/12/21 13:41:10;;;;;;;;;33.50;29.25;;;;;;;;5170579;28;9511;-64
2021/12/21 13:43:55;;;;;;;;;20.75;19.75;;;;;;;;5170304;28;8859;-64
2021/12/21 13:46:32;;;;;;;;;24.75;23.75;;;;;;;;5171064;28;8787;-64
2021/12/21 13:49:03;;;;;;;;;23.50;20.75;;;;;;;;5170775;28;8791;-64
2021/12/21 13:51:34;;;;;;;;;38.00;32.00;;;;;;;;5170385;28;8795;-64
2021/12/21 13:54:14;;;;;;;;;29.33;28.67;;;;;;;;5187939;28;8861;-65
2021/12/21 13:56:51;;;;;;;;;28.33;24.67;;;;;;;;5182429;28;8941;-64
2021/12/21 13:59:27;;;;;;;;;40.67;36.67;;;;;;;;5171253;28;9392;-64
2021/12/21 14:02:06;;;;;;;;;42.00;37.00;;;;;;;;5170010;28;9626;-63
2021/12/21 14:04:48;;;;;;;;;66.75;53.25;;;;;;;;5170380;28;9404;-64
2021/12/21 14:07:19;;;;;;;;;55.67;48.33;;;;;;;;5187760;28;10113;-63
2021/12/21 14:10:16;;;;;;;;;54.50;49.50;;;;;;;;5191625;28;9617;-62
2021/12/21 14:12:56;;;;;;;;;47.33;45.00;;;;;;;;5171136;28;10125;-65
2021/12/21 14:15:35;;;;;;;;;57.00;50.25;;;;;;;;5170808;28;9522;-64
2021/12/21 14:18:31;;;;;;;;;36.00;36.00;;;;;;;;5187714;28;9990;-64
2021/12/21 14:21:06;;;;;;;;;69.00;56.75;;;;;;;;5186279;28;9565;-64
2021/12/21 14:23:39;;;;;;;;;26.33;22.67;;;;;;;;5189692;28;10107;-65
2021/12/21 14:26:18;;;;;;;;;33.00;31.67;;;;;;;;5189791;28;9184;-64
2021/12/21 14:28:57;;;;;;;;;48.50;44.00;;;;;;;;5207749;28;9222;-65
2021/12/21 14:31:37;;;;;;;;;58.75;48.50;;;;;;;;5206465;28;9864;-64
2021/12/21 14:34:09;;;;;;;;;52.50;47.25;;;;;;;;5189785;28;9808;-64
2021/12/21 14:36:59;;;;;;;;;75.50;59.75;;;;;;;;5207450;28;10283;-64
2021/12/21 14:39:30;;;;;;;;;82.50;65.00;;;;;;;;5189415;28;10651;-64
2021/12/21 14:42:07;;;;;;;;;73.50;59.75;;;;;;;;5184738;28;11085;-64
2021/12/21 14:44:49;;;;;;;;;51.25;44.50;;;;;;;;5205265;28;12097;-63
2021/12/21 14:47:21;;;;;;;;;43.00;42.00;;;;;;;;5190352;28;10557;-67
2021/12/21 14:50:04;;;;;;;;;66.50;52.00;;;;;;;;5190228;28;9852;-64
2021/12/21 14:52:40;;;;;;;;;19.67;19.67;;;;;;;;5195778;28;10026;-67
2021/12/21 14:55:29;;;;;;;;;36.33;34.67;;;;;;;;5193428;28;9415;-66
2021/12/21 14:58:02;;;;;;;;;35.33;31.67;;;;;;;;5209860;28;9226;-65
2021/12/21 15:00:42;;;;;;;;;26.50;24.50;;;;;;;;5173189;28;8984;-65
2021/12/21 15:03:13;;;;;;;;;64.25;44.00;;;;;;;;5194007;28;8778;-65
2021/12/21 15:05:44;;;;;;;;;47.33;40.00;;;;;;;;5197798;28;10359;-65
2021/12/21 15:08:17;;;;;;;;;31.67;28.67;;;;;;;;5211477;28;9704;-65
2021/12/21 15:10:50;;;;;;;;;33.33;31.00;;;;;;;;5188809;28;8805;-65
2021/12/21 15:13:21;;;;;;;;;48.67;45.00;;;;;;;;5172883;28;9368;-66
2021/12/21 15:15:52;;;;;;;;;23.33;17.67;;;;;;;;5227063;28;9665;-69
2021/12/21 15:18:24;;;;;;;;;38.67;34.33;;;;;;;;5228075;28;9419;-65
2021/12/21 15:20:55;;;;;;;;;28.67;28.67;;;;;;;;5193470;28;9543;-66
2021/12/21 15:23:26;;;;;;;;;22.00;19.67;;;;;;;;5227095;28;9395;-66
2021/12/21 15:25:57;;;;;;;;;28.00;27.33;;;;;;;;5208700;28;10190;-66
2021/12/21 15:28:28;;;;;;;;;8.33;7.00;;;;;;;;5189217;28;9478;-66
2021/12/21 15:30:59;;;;;;;;;26.33;25.00;;;;;;;;5175131;28;9588;-67
2021/12/21 15:33:30;;;;;;;;;8.50;8.50;;;;;;;;5212221;28;8904;-69
2021/12/21 15:36:01;;;;;;;;;118.50;93.75;;;;;;;;5206065;28;8927;-65
2021/12/21 15:38:33;;;;;;;;;24.67;24.00;;;;;;;;5188841;28;8883;-65
2021/12/21 15:41:04;;;;;;;;;32.33;30.00;;;;;;;;5188815;28;8890;-65
2021/12/21 15:43:38;;;;;;;;;21.33;19.00;;;;;;;;5171669;28;9168;-65
2021/12/21 15:46:10;;;;;;;;;22.67;22.33;;;;;;;;5206451;28;11593;-65
2021/12/21 15:48:44;;;;;;;;;25.00;22.67;;;;;;;;5188957;28;9062;-65
2021/12/21 15:51:15;;;;;;;;;27.33;27.33;;;;;;;;5188474;28;8946;-65
2021/12/21 15:53:46;;;;;;;;;31.00;30.00;;;;;;;;5172645;28;9214;-65
2021/12/21 15:56:19;;;;;;;;;27.67;27.67;;;;;;;;5171798;28;9199;-65
2021/12/21 15:59:08;;;;;;;;;14.00;13.25;;;;;;;;5206343;28;9338;-64
2021/12/21 16:01:39;;;;;;;;;51.50;45.25;;;;;;;;5172141;28;8809;-64
2021/12/21 16:04:28;;;;;;;;;18.67;18.67;;;;;;;;5191465;28;8770;-65
2021/12/21 16:06:59;;;;;;;;;25.67;24.67;;;;;;;;5206251;28;9601;-65
2021/12/21 16:09:29;;;;;;;;;28.67;28.67;;;;;;;;5190386;28;8859;-64
2021/12/21 16:12:00;;;;;;;;;59.75;42.75;;;;;;;;5220344;28;8816;-70
2021/12/21 16:14:31;;;;;;;;;45.67;39.33;;;;;;;;5204949;28;8812;-64
2021/12/21 16:17:02;;;;;;;;;43.33;38.67;;;;;;;;5204626;28;8871;-64
2021/12/21 16:19:34;;;;;;;;;19.33;18.67;;;;;;;;5171690;28;8824;-64
2021/12/21 16:22:23;;;;;;;;;26.33;21.00;;;;;;;;5190531;28;9044;-64
2021/12/21 16:24:54;;;;;;;;;30.67;23.33;;;;;;;;5205146;28;9180;-64
2021/12/21 16:27:25;;;;;;;;;18.67;18.67;;;;;;;;5188450;28;9493;-64
2021/12/21 16:29:55;;;;;;;;;6.00;6.00;;;;;;;;5205610;28;8794;-65
2021/12/21 16:32:26;;;;;;;;;12.00;12.00;;;;;;;;5204423;28;9746;-65
2021/12/21 16:34:57;;;;;;;;;3.00;3.00;;;;;;;;5206439;28;9437;-64
2021/12/21 16:37:28;;;;;;;;;7.00;7.00;;;;;;;;5205705;28;8778;-64
2021/12/21 16:39:59;;;;;;;;;12.33;12.33;;;;;;;;5205245;28;8828;-64
2021/12/21 16:42:29;;;;;;;;;18.67;17.67;;;;;;;;5205440;28;8852;-65
2021/12/21 16:45:20;;;;;;;;;38.67;37.00;;;;;;;;5190251;28;8832;-65